createdAt,value
2022-09-09T00:02:26.405Z,1.90
2022-09-09T00:05:17.238Z,2.30
2022-09-09T00:07:57.193Z,1.60
2022-09-09T00:10:40.863Z,1.50
2022-09-09T00:13:49.751Z,1.85
2022-09-09T00:16:27.721Z,2.15
2022-09-09T00:19:21.209Z,3.15
2022-09-09T00:22:18.555Z,2.75
2022-09-09T00:25:19.527Z,2.60
2022-09-09T00:27:51.818Z,1.88
2022-09-09T00:30:26.358Z,1.98
2022-09-09T00:33:14.356Z,2.17
2022-09-09T00:35:50.765Z,1.77
2022-09-09T00:38:36.802Z,2.10
2022-09-09T00:41:38.151Z,1.58
2022-09-09T00:44:38.158Z,2.25
2022-09-09T00:47:47.054Z,1.60
2022-09-09T00:50:32.700Z,1.50
2022-09-09T00:53:29.084Z,1.73
2022-09-09T00:56:27.933Z,1.63
2022-09-09T00:59:28.612Z,2.03
2022-09-09T01:01:59.903Z,1.48
2022-09-09T01:04:38.107Z,1.75
2022-09-09T01:07:27.273Z,1.60
2022-09-09T01:10:02.415Z,1.85
2022-09-09T01:12:52.555Z,1.90
2022-09-09T01:15:29.052Z,1.77
2022-09-09T01:18:15.739Z,2.05
2022-09-09T01:21:15.609Z,1.75
2022-09-09T01:24:08.600Z,2.22
2022-09-09T01:26:48.645Z,1.98
2022-09-09T01:29:20.441Z,1.83
2022-09-09T01:32:05.268Z,1.98
2022-09-09T01:34:42.005Z,1.95
2022-09-09T01:37:16.263Z,1.90
2022-09-09T01:39:47.752Z,1.77
2022-09-09T01:42:19.209Z,2.08
2022-09-09T01:44:49.109Z,2.20
2022-09-09T01:47:20.430Z,2.13
2022-09-09T01:49:50.384Z,2.15
2022-09-09T01:52:20.371Z,2.00
2022-09-09T01:54:50.481Z,2.63
2022-09-09T01:57:42.403Z,2.42
2022-09-09T02:00:15.766Z,2.10
2022-09-09T02:03:11.760Z,2.42
2022-09-09T02:05:43.836Z,2.90
2022-09-09T02:08:29.775Z,3.10
2022-09-09T02:11:12.255Z,3.05
2022-09-09T02:13:43.069Z,2.60
2022-09-09T02:16:37.121Z,3.05
2022-09-09T02:19:18.221Z,2.85
2022-09-09T02:21:49.788Z,3.20
2022-09-09T02:24:19.780Z,3.03
2022-09-09T02:26:54.979Z,3.50
2022-09-09T02:29:33.521Z,3.22
2022-09-09T02:32:08.350Z,3.65
2022-09-09T02:34:43.424Z,3.15
2022-09-09T02:37:15.279Z,3.78
2022-09-09T02:39:45.292Z,3.67
2022-09-09T02:42:17.306Z,4.05
2022-09-09T02:44:48.373Z,3.97
2022-09-09T02:47:41.334Z,4.20
2022-09-09T02:50:27.162Z,3.78
2022-09-09T02:53:23.505Z,3.70
2022-09-09T02:56:16.848Z,3.20
2022-09-09T02:58:47.102Z,3.35
2022-09-09T03:01:17.359Z,3.38
2022-09-09T03:03:49.281Z,3.92
2022-09-09T03:06:19.434Z,3.45
2022-09-09T03:08:49.800Z,3.88
2022-09-09T03:11:20.966Z,3.35
2022-09-09T03:13:51.895Z,4.00
2022-09-09T03:16:22.167Z,3.92
2022-09-09T03:18:52.184Z,3.28
2022-09-09T03:21:22.221Z,3.70
2022-09-09T03:23:52.512Z,3.97
2022-09-09T03:26:22.746Z,3.53
2022-09-09T03:28:54.335Z,3.40
2022-09-09T03:31:24.496Z,3.70
2022-09-09T03:33:54.192Z,3.60
2022-09-09T03:36:23.814Z,2.92
2022-09-09T03:38:53.413Z,3.58
2022-09-09T03:41:23.686Z,3.03
2022-09-09T03:43:57.028Z,3.08
2022-09-09T03:46:29.012Z,3.15
2022-09-09T03:48:59.772Z,3.08
2022-09-09T03:51:29.392Z,3.33
2022-09-09T03:54:00.784Z,3.28
2022-09-09T03:56:30.400Z,3.30
2022-09-09T03:59:00.303Z,2.85
2022-09-09T04:01:30.173Z,3.20
2022-09-09T04:04:00.891Z,3.15
2022-09-09T04:06:30.550Z,3.50
2022-09-09T04:09:00.141Z,2.92
2022-09-09T04:11:29.775Z,3.25
2022-09-09T04:13:59.792Z,3.05
2022-09-09T04:16:29.433Z,3.15
2022-09-09T04:19:00.721Z,3.13
2022-09-09T04:21:30.322Z,3.47
2022-09-09T04:24:00.098Z,3.47
2022-09-09T04:26:29.773Z,3.47
2022-09-09T04:28:59.429Z,3.17
2022-09-09T04:31:29.053Z,3.15
2022-09-09T04:33:59.400Z,3.72
2022-09-09T04:36:29.341Z,3.55
2022-09-09T04:38:59.286Z,2.95
2022-09-09T04:41:29.243Z,3.42
2022-09-09T04:43:59.205Z,4.05
2022-09-09T04:46:29.624Z,3.80
2022-09-09T04:48:59.623Z,3.92
2022-09-09T04:51:29.621Z,4.32
2022-09-09T04:53:59.647Z,3.22
2022-09-09T04:56:29.611Z,4.07
2022-09-09T04:58:59.701Z,4.45
2022-09-09T05:01:29.864Z,3.35
2022-09-09T05:04:00.404Z,3.25
2022-09-09T05:06:32.581Z,3.20
2022-09-09T05:09:02.917Z,2.65
2022-09-09T05:11:35.503Z,2.38
2022-09-09T05:14:06.345Z,2.90
2022-09-09T05:16:36.767Z,2.70
2022-09-09T05:19:06.904Z,2.63
2022-09-09T05:21:37.144Z,2.20
2022-09-09T05:24:07.592Z,2.70
2022-09-09T05:26:37.632Z,2.35
2022-09-09T05:29:08.755Z,2.35
2022-09-09T05:31:39.364Z,2.30
2022-09-09T05:34:09.434Z,1.80
2022-09-09T05:36:39.024Z,1.90
2022-09-09T05:39:08.727Z,1.63
2022-09-09T05:41:38.606Z,1.58
2022-09-09T05:44:08.894Z,1.40
2022-09-09T05:46:38.736Z,1.63
2022-09-09T05:49:08.863Z,1.58
2022-09-09T05:51:38.580Z,1.55
2022-09-09T05:54:08.157Z,1.77
2022-09-09T05:56:37.754Z,1.60
2022-09-09T05:59:09.001Z,1.70
2022-09-09T06:01:43.477Z,1.73
2022-09-09T06:04:13.246Z,1.23
2022-09-09T06:06:44.650Z,1.13
2022-09-09T06:09:14.614Z,1.10
2022-09-09T06:11:44.379Z,0.65
2022-09-09T06:14:14.332Z,1.17
2022-09-09T06:16:46.690Z,0.80
2022-09-09T06:19:17.011Z,1.10
2022-09-09T06:21:47.133Z,1.30
2022-09-09T06:24:19.990Z,0.73
2022-09-09T06:26:49.612Z,1.00
2022-09-09T06:29:19.237Z,0.98
2022-09-09T06:31:50.326Z,1.30
2022-09-09T06:34:19.950Z,1.30
2022-09-09T06:36:49.751Z,1.08
2022-09-09T06:39:19.804Z,1.25
2022-09-09T06:41:50.028Z,1.00
2022-09-09T06:44:20.024Z,1.30
2022-09-09T06:46:50.719Z,1.10
2022-09-09T06:49:20.859Z,1.13
2022-09-09T06:51:54.033Z,1.50
2022-09-09T06:54:26.366Z,1.30
2022-09-09T06:56:56.395Z,1.35
2022-09-09T06:59:26.261Z,1.05
2022-09-09T07:01:57.305Z,1.38
2022-09-09T07:04:27.965Z,1.55
2022-09-09T07:06:58.303Z,1.00
2022-09-09T07:09:27.976Z,1.00
2022-09-09T07:11:58.597Z,1.60
2022-09-09T07:14:29.004Z,1.20
2022-09-09T07:16:59.875Z,1.00
2022-09-09T07:19:29.879Z,1.90
2022-09-09T07:21:59.616Z,1.77
2022-09-09T07:24:32.829Z,1.13
2022-09-09T07:27:02.656Z,1.40
2022-09-09T07:29:32.304Z,1.83
2022-09-09T07:32:02.313Z,1.40
2022-09-09T07:34:32.645Z,1.85
2022-09-09T07:37:02.578Z,2.00
2022-09-09T07:39:32.711Z,1.80
2022-09-09T07:42:02.879Z,1.67
2022-09-09T07:44:34.943Z,1.58
2022-09-09T07:47:06.130Z,1.70
2022-09-09T07:49:36.880Z,2.30
2022-09-09T07:54:38.111Z,1.50
2022-09-09T07:57:08.261Z,1.20
2022-09-09T07:59:38.318Z,1.30
2022-09-09T08:02:09.421Z,1.17
2022-09-09T08:04:39.480Z,1.10
2022-09-09T08:07:10.603Z,1.60
2022-09-09T08:09:40.719Z,2.53
2022-09-09T08:12:11.496Z,1.45
2022-09-09T08:14:42.760Z,1.30
2022-09-09T08:17:12.771Z,1.10
2022-09-09T08:19:42.891Z,1.10
2022-09-09T08:22:12.959Z,1.00
2022-09-09T08:24:43.599Z,1.10
2022-09-09T08:27:13.774Z,0.93
2022-09-09T08:29:43.885Z,1.00
2022-09-09T08:32:14.000Z,1.30
2022-09-09T08:34:46.611Z,0.70
2022-09-09T08:37:17.193Z,1.08
2022-09-09T08:39:47.257Z,1.05
2022-09-09T08:42:41.140Z,1.05
2022-09-09T08:45:29.360Z,0.90
2022-09-09T08:48:17.615Z,0.70
2022-09-09T08:50:49.611Z,0.70
2022-09-09T08:53:34.143Z,0.82
2022-09-09T08:56:11.509Z,1.10
2022-09-09T08:58:52.079Z,0.85
2022-09-09T09:01:53.438Z,0.90
2022-09-09T09:04:53.325Z,1.00
2022-09-09T09:08:02.994Z,0.70
2022-09-09T09:10:51.342Z,0.95
2022-09-09T09:13:43.983Z,1.00
2022-09-09T09:16:38.030Z,0.85
2022-09-09T09:19:11.030Z,0.80
2022-09-09T09:21:47.718Z,0.75
2022-09-09T09:24:38.102Z,0.90
2022-09-09T09:27:35.199Z,0.85
2022-09-09T09:30:30.044Z,0.90
2022-09-09T09:33:24.162Z,1.30
2022-09-09T09:35:54.536Z,0.98
2022-09-09T09:41:16.850Z,0.73
2022-09-09T09:43:57.382Z,0.80
2022-09-09T09:46:29.254Z,0.73
2022-09-09T09:49:08.261Z,0.65
2022-09-09T09:51:48.078Z,0.70
2022-09-09T09:54:30.388Z,0.80
2022-09-09T09:57:10.649Z,0.88
2022-09-09T09:59:42.652Z,0.80
2022-09-09T10:02:29.243Z,0.90
2022-09-09T10:05:31.578Z,1.23
2022-09-09T10:08:15.783Z,0.85
2022-09-09T10:11:19.902Z,0.90
2022-09-09T10:14:22.585Z,0.80
2022-09-09T10:17:32.763Z,0.98
2022-09-09T10:20:41.696Z,1.25
2022-09-09T10:23:50.541Z,0.75
2022-09-09T10:26:47.529Z,1.00
2022-09-09T10:29:46.001Z,1.30
2022-09-09T10:32:48.609Z,0.98
2022-09-09T10:35:53.216Z,0.85
2022-09-09T10:38:48.502Z,1.27
2022-09-09T10:41:55.202Z,0.88
2022-09-09T10:44:51.435Z,1.13
2022-09-09T10:47:52.067Z,1.20
2022-09-09T10:51:04.427Z,1.27
2022-09-09T10:54:07.952Z,1.15
2022-09-09T10:56:38.627Z,1.35
2022-09-09T10:59:20.691Z,1.15
2022-09-09T11:02:01.922Z,1.20
2022-09-09T11:04:56.811Z,1.27
2022-09-09T11:07:56.470Z,1.50
2022-09-09T11:10:51.744Z,1.20
2022-09-09T11:13:30.191Z,1.17
2022-09-09T11:16:24.915Z,1.80
2022-09-09T11:19:08.664Z,1.83
2022-09-09T11:21:56.011Z,1.63
2022-09-09T11:24:43.534Z,1.73
2022-09-09T11:27:29.090Z,1.90
2022-09-09T11:30:44.582Z,1.65
2022-09-09T11:33:53.401Z,1.65
2022-09-09T11:37:05.207Z,1.60
2022-09-09T11:40:04.309Z,1.50
2022-09-09T11:42:34.622Z,2.08
2022-09-09T11:45:26.973Z,1.70
2022-09-09T11:47:59.367Z,1.85
2022-09-09T11:50:39.485Z,1.65
2022-09-09T11:53:30.333Z,1.67
2022-09-09T11:56:16.290Z,1.60
2022-09-09T11:58:58.063Z,1.58
2022-09-09T12:01:39.707Z,1.83
2022-09-09T12:04:31.428Z,1.77
2022-09-09T12:07:41.738Z,1.55
2022-09-09T12:10:37.885Z,1.63
2022-09-09T12:13:29.974Z,1.27
2022-09-09T12:16:02.393Z,1.98
2022-09-09T12:18:52.495Z,1.50
2022-09-09T12:21:49.193Z,1.38
2022-09-09T12:24:43.060Z,1.60
2022-09-09T12:27:36.136Z,1.55
2022-09-09T12:30:21.566Z,1.65
2022-09-09T12:33:03.056Z,1.65
2022-09-09T12:35:34.612Z,1.60
2022-09-09T12:38:10.374Z,1.80
2022-09-09T12:40:44.595Z,2.25
2022-09-09T12:43:26.201Z,1.70
2022-09-09T12:46:03.565Z,1.92
2022-09-09T12:48:53.203Z,2.22
2022-09-09T12:51:46.327Z,1.70
2022-09-09T12:54:18.190Z,2.30
2022-09-09T12:56:51.588Z,1.58
2022-09-09T12:59:28.420Z,1.83
2022-09-09T13:02:02.857Z,1.75
2022-09-09T13:04:33.159Z,1.80
2022-09-09T13:07:13.799Z,1.50
2022-09-09T13:09:44.460Z,1.88
2022-09-09T13:12:25.780Z,1.60
2022-09-09T13:15:02.616Z,1.40
2022-09-09T13:17:32.791Z,1.60
2022-09-09T13:20:03.201Z,1.60
2022-09-09T13:22:43.354Z,1.65
2022-09-09T13:25:30.816Z,1.98
2022-09-09T13:28:06.719Z,1.67
2022-09-09T13:30:40.931Z,1.75
2022-09-09T13:36:33.397Z,1.83
2022-09-09T13:39:05.960Z,2.78
2022-09-09T13:41:51.222Z,2.03
2022-09-09T13:44:27.981Z,1.63
2022-09-09T13:47:27.920Z,1.65
2022-09-09T13:49:58.325Z,2.08
2022-09-09T13:52:34.991Z,1.58
2022-09-09T13:55:05.260Z,2.95
2022-09-09T13:57:38.409Z,1.73
2022-09-09T14:00:15.919Z,1.83
2022-09-09T14:02:46.882Z,2.45
2022-09-09T14:05:18.795Z,2.35
2022-09-09T14:07:53.208Z,2.00
2022-09-09T14:10:26.439Z,2.33
2022-09-09T14:12:56.980Z,2.20
2022-09-09T14:15:29.938Z,2.20
2022-09-09T14:18:01.851Z,2.30
2022-09-09T14:20:32.029Z,2.17
2022-09-09T14:23:03.601Z,1.77
2022-09-09T14:25:34.506Z,1.98
2022-09-09T14:28:05.011Z,1.90
2022-09-09T14:30:43.604Z,2.47
2022-09-09T14:33:18.438Z,1.90
2022-09-09T14:35:48.722Z,1.95
2022-09-09T14:38:19.310Z,2.10
2022-09-09T14:40:49.951Z,2.17
2022-09-09T14:43:20.273Z,1.55
2022-09-09T14:45:57.218Z,2.95
2022-09-09T14:48:27.439Z,1.77
2022-09-09T14:50:58.234Z,2.33
2022-09-09T14:53:28.399Z,1.92
2022-09-09T14:56:07.774Z,2.08
2022-09-09T14:58:39.281Z,1.80
2022-09-09T15:01:13.523Z,2.15
2022-09-09T15:03:46.140Z,1.63
2022-09-09T15:06:19.340Z,1.65
2022-09-09T15:08:53.029Z,1.50
2022-09-09T15:11:26.540Z,2.10
2022-09-09T15:13:57.269Z,2.60
2022-09-09T15:16:32.550Z,1.67
2022-09-09T15:19:04.561Z,1.30
2022-09-09T15:21:38.443Z,1.60
2022-09-09T15:24:11.019Z,1.70
2022-09-09T15:26:44.009Z,1.45
2022-09-09T15:29:13.932Z,1.35
2022-09-09T15:31:43.879Z,1.80
2022-09-09T15:34:14.078Z,1.50
2022-09-09T15:36:49.480Z,2.13
2022-09-09T15:39:21.550Z,1.38
2022-09-09T15:41:51.848Z,1.65
2022-09-09T15:44:22.395Z,2.13
2022-09-09T15:46:56.605Z,1.65
2022-09-09T15:49:28.697Z,2.08
2022-09-09T15:52:06.067Z,2.00
2022-09-09T15:54:38.233Z,2.22
2022-09-09T15:57:11.365Z,1.98
2022-09-09T15:59:41.144Z,1.50
2022-09-09T16:02:15.985Z,2.33
2022-09-09T16:04:45.784Z,1.95
2022-09-09T16:07:16.375Z,1.95
2022-09-09T16:09:46.352Z,1.98
2022-09-09T16:12:17.218Z,2.35
2022-09-09T16:14:49.252Z,1.70
2022-09-09T16:17:21.850Z,1.85
2022-09-09T16:19:51.969Z,1.52
2022-09-09T16:22:22.842Z,2.03
2022-09-09T16:24:53.233Z,1.58
2022-09-09T16:27:23.491Z,1.52
2022-09-09T16:29:54.082Z,1.42
2022-09-09T16:32:24.961Z,1.27
2022-09-09T16:34:55.020Z,2.00
2022-09-09T16:37:25.033Z,2.03
2022-09-09T16:39:56.421Z,1.80
2022-09-09T16:42:26.494Z,1.50
2022-09-09T16:44:57.242Z,2.05
2022-09-09T16:47:29.771Z,1.40
2022-09-09T16:50:00.015Z,1.67
2022-09-09T16:52:30.022Z,1.50
2022-09-09T16:55:00.185Z,1.80
2022-09-09T16:57:35.800Z,1.70
2022-09-09T17:00:09.679Z,1.33
2022-09-09T17:02:39.980Z,1.38
2022-09-09T17:05:10.311Z,1.70
2022-09-09T17:07:40.432Z,1.88
2022-09-09T17:10:11.100Z,1.92
2022-09-09T17:12:42.447Z,1.73
2022-09-09T17:15:13.123Z,1.50
2022-09-09T17:17:48.001Z,1.42
2022-09-09T17:20:19.500Z,1.63
2022-09-09T17:22:49.522Z,1.42
2022-09-09T17:25:20.065Z,1.83
2022-09-09T17:27:50.149Z,1.67
2022-09-09T17:30:20.259Z,1.85
2022-09-09T17:32:50.461Z,1.50
2022-09-09T17:35:20.598Z,1.65
2022-09-09T17:37:50.865Z,1.38
2022-09-09T17:40:21.036Z,1.52
2022-09-09T17:42:51.500Z,1.05
2022-09-09T17:45:23.143Z,1.45
2022-09-09T17:47:53.270Z,1.83
2022-09-09T17:50:23.767Z,1.13
2022-09-09T17:52:53.761Z,1.55
2022-09-09T17:55:24.131Z,1.75
2022-09-09T17:57:54.302Z,1.35
2022-09-09T18:00:24.598Z,1.52
2022-09-09T18:02:54.638Z,1.10
2022-09-09T18:05:24.857Z,1.42
2022-09-09T18:07:55.270Z,1.40
2022-09-09T18:10:25.398Z,1.20
2022-09-09T18:12:56.104Z,1.30
2022-09-09T18:15:48.204Z,1.27
2022-09-09T18:18:16.812Z,1.20
2022-09-09T18:20:46.871Z,1.40
2022-09-09T18:23:16.680Z,1.58
2022-09-09T18:25:47.701Z,1.40
2022-09-09T18:28:17.459Z,1.23
2022-09-09T18:30:47.237Z,1.40
2022-09-09T18:33:17.663Z,0.90
2022-09-09T18:35:50.058Z,0.93
2022-09-09T18:38:19.856Z,0.95
2022-09-09T18:40:49.570Z,1.10
2022-09-09T18:43:19.352Z,0.93
2022-09-09T18:45:49.153Z,1.30
2022-09-09T18:48:18.836Z,0.98
2022-09-09T18:50:48.530Z,1.10
2022-09-09T18:53:18.393Z,1.10
2022-09-09T18:55:48.093Z,1.00
2022-09-09T18:58:17.862Z,0.95
2022-09-09T19:00:49.308Z,1.10
2022-09-09T19:03:19.219Z,0.80
2022-09-09T19:05:48.951Z,1.80
2022-09-09T19:08:18.680Z,0.98
2022-09-09T19:10:51.315Z,1.38
2022-09-09T19:13:21.080Z,1.38
2022-09-09T19:15:51.119Z,1.23
2022-09-09T19:18:21.871Z,0.82
2022-09-09T19:20:52.009Z,1.20
2022-09-09T19:23:22.022Z,1.42
2022-09-09T19:25:52.963Z,1.25
2022-09-09T19:28:23.020Z,1.20
2022-09-09T19:30:53.141Z,0.82
2022-09-09T19:33:23.263Z,1.08
2022-09-09T19:36:04.503Z,1.30
2022-09-09T19:38:35.426Z,1.00
2022-09-09T19:41:15.374Z,1.00
2022-09-09T19:43:46.170Z,1.08
2022-09-09T19:46:18.780Z,1.40
2022-09-09T19:48:49.562Z,1.00
2022-09-09T19:51:23.481Z,1.42
2022-09-09T19:54:00.627Z,0.95
2022-09-09T19:56:31.492Z,0.90
2022-09-09T19:59:02.198Z,1.48
2022-09-09T20:01:39.921Z,1.25
2022-09-09T20:06:43.524Z,1.13
2022-09-09T20:09:19.461Z,1.25
2022-09-09T20:11:51.180Z,1.10
2022-09-09T20:14:21.491Z,1.70
2022-09-09T20:16:51.334Z,1.05
2022-09-09T20:19:22.120Z,1.30
2022-09-09T20:21:54.252Z,1.20
2022-09-09T20:24:25.660Z,1.00
2022-09-09T20:26:55.983Z,1.42
2022-09-09T20:29:27.631Z,1.25
2022-09-09T20:32:00.543Z,1.10
2022-09-09T20:34:31.710Z,1.40
2022-09-09T20:37:04.262Z,0.95
2022-09-09T20:39:34.396Z,1.08
2022-09-09T20:42:04.699Z,1.05
2022-09-09T20:44:34.997Z,0.90
2022-09-09T20:47:08.311Z,1.25
2022-09-09T20:49:38.302Z,1.40
2022-09-09T20:52:08.580Z,1.65
2022-09-09T20:54:39.374Z,1.60
2022-09-09T20:57:10.163Z,1.23
2022-09-09T20:59:39.918Z,1.50
2022-09-09T21:02:09.826Z,1.45
2022-09-09T21:04:40.368Z,1.25
2022-09-09T21:07:10.120Z,1.67
2022-09-09T21:09:40.070Z,1.42
2022-09-09T21:12:10.393Z,1.92
2022-09-09T21:14:40.070Z,1.48
2022-09-09T21:17:09.832Z,1.80
2022-09-09T21:19:40.820Z,2.15
2022-09-09T21:22:10.770Z,1.98
2022-09-09T21:24:41.052Z,1.77
2022-09-09T21:27:11.681Z,1.80
2022-09-09T21:29:41.699Z,1.70
2022-09-09T21:32:11.790Z,2.30
2022-09-09T21:34:44.150Z,1.50
2022-09-09T21:37:14.259Z,1.85
2022-09-09T21:39:44.829Z,2.20
2022-09-09T21:42:15.657Z,1.77
2022-09-09T21:44:45.780Z,1.20
2022-09-09T21:47:17.679Z,30.58
2022-09-09T21:49:47.720Z,27.52
2022-09-09T21:52:17.732Z,14.80
2022-09-09T21:54:47.820Z,8.40
2022-09-09T21:57:20.700Z,6.68
2022-09-09T21:59:54.618Z,5.55
2022-09-09T22:02:25.198Z,3.17
2022-09-09T22:04:55.489Z,2.38
2022-09-09T22:07:25.472Z,2.08
2022-09-09T22:09:55.523Z,1.77
2022-09-09T22:12:26.181Z,2.05
2022-09-09T22:14:57.989Z,1.95
2022-09-09T22:17:28.093Z,1.20
2022-09-09T22:19:58.680Z,1.27
2022-09-09T22:22:28.540Z,1.35
2022-09-09T22:24:58.501Z,1.33
2022-09-09T22:27:28.524Z,1.70
2022-09-09T22:29:58.218Z,1.30
2022-09-09T22:32:28.809Z,1.45
2022-09-09T22:34:58.543Z,1.45
2022-09-09T22:37:28.145Z,1.27
2022-09-09T22:39:57.802Z,2.03
2022-09-09T22:42:27.662Z,1.40
2022-09-09T22:44:57.343Z,1.27
2022-09-09T22:47:27.022Z,1.33
2022-09-09T22:49:57.022Z,1.40
2022-09-09T22:52:26.872Z,1.20
2022-09-09T22:54:56.681Z,1.90
2022-09-09T22:57:26.510Z,1.65
2022-09-09T22:59:56.752Z,1.92
2022-09-09T23:02:28.180Z,1.50
2022-09-09T23:05:00.881Z,2.10
2022-09-09T23:07:30.541Z,1.58
2022-09-09T23:10:00.319Z,1.50
2022-09-09T23:12:31.800Z,1.50
2022-09-09T23:15:01.711Z,1.48
2022-09-09T23:17:31.913Z,2.47
2022-09-09T23:20:02.642Z,2.58
2022-09-09T23:22:32.750Z,2.10
2022-09-09T23:25:03.553Z,2.30
2022-09-09T23:27:34.588Z,2.33
2022-09-09T23:30:04.239Z,2.60
2022-09-09T23:32:34.730Z,3.25
2022-09-09T23:35:04.469Z,2.50
2022-09-09T23:37:34.073Z,3.08
2022-09-09T23:40:04.050Z,2.55
2022-09-09T23:42:34.987Z,2.28
2022-09-09T23:45:04.589Z,2.72
2022-09-09T23:47:34.409Z,2.65
2022-09-09T23:50:04.151Z,2.45
2022-09-09T23:52:33.930Z,2.30
2022-09-09T23:55:03.873Z,2.53
2022-09-09T23:57:33.518Z,2.15
